NCAR-RAP Real-Time Weather Data

Output produced by METARs form (18 August 2018  01:02 UTC)
found at http://weather.rap.ucar.edu/surface/
 
RJSI 180000Z 03007KT 9999 FEW030 BKN/// 21/14 Q1013
RJSI 172300Z 03005KT 9999 FEW030 SCT/// 18/14 Q1013
RJSI 172240Z 02005KT 9999 FEW008 SCT/// 17/14 Q1013 RMK 1ST008 A2993
RJSI 171000Z 02003KT 9999 FEW040 BKN070 17/13 Q1010
RJSI 170900Z 01006KT 9999 FEW030 SCT040 BKN070 18/13 Q1009
RJSI 170800Z 01009KT 9999 FEW030 SCT040 BKN070 19/13 Q1008
RJSI 170700Z 36009KT 9999 FEW030 SCT040 20/12 Q1008
RJSI 170600Z 35014KT 320V020 9999 FEW030 SCT040 21/13 Q1008
RJSI 170500Z 36012KT 9999 FEW020 SCT040 BKN070 20/13 Q1008
RJSI 170400Z 36018KT 9999 -SHRA FEW020 SCT040 BKN070 18/13 Q1008
RJSI 170300Z 36016KT 9999 -SHRA FEW020 SCT030 BKN040 17/15 Q1007
RJSI 170200Z 36014KT 9999 FEW030 BKN110 22/14 Q1006
RJSI 170100Z 35014G24KT 9999 FEW030 SCT040 BKN070 19/14 Q1006
RJSI 170000Z 35017G28KT 9999 FEW020 SCT030 BKN040 19/13 Q1005
RJSI 162300Z 34013KT 9999 -SHRA FEW020 SCT030 BKN040 19/14 Q1004
RJSI 162240Z 32005KT 270V020 9999 FEW020 SCT030 BKN040 20/15 Q1003 RMK 1CU020 3CU030 6CU040 A2964
RJSI 161000Z 23003KT 170V310 9999 -SHRA FEW020 BKN/// 21/19 Q1001
RJSI 160900Z 27009G22KT 230V320 9999 -SHRA FEW008 SCT030 BKN/// 21/19 Q1001
RJSI 160809Z 21007KT 170V250 6000 -SHRA FEW002 SCT008 BKN020 23/22 Q1000 RMK 1ST002 3ST008 5CU020 A2954
RJSI 160800Z 20008KT 160V250 4000 SHRA BR FEW002 SCT008 BKN015 22/22 Q1000
RJSI 160735Z 17010KT 5000 -SHRA BR FEW003 SCT008 BKN020 22/22 Q0999 RMK 1ST003 4ST008 6CU020 A2952
RJSI 160724Z 17010KT 4000 SHRA BR FEW004 SCT008 BKN020 22/21 Q0999 RMK 1ST004 4ST008 6CU020 A2953
RJSI 160720Z 17008KT 4000 -SHRA BR FEW004 SCT008 BKN020 22/22 Q0999 RMK 1ST004 3ST008 6CU020 A2952
RJSI 160700Z 18010KT 9999 -SHRA FEW004 SCT010 BKN030 23/21 Q0999
RJSI 160600Z 21007KT 180V260 9999 -SHRA FEW003 SCT010 BKN020 22/21 Q1000
RJSI 160500Z 18008KT 8000 -SHRA FEW003 SCT008 BKN030 22/21 Q1000
RJSI 160400Z 19010KT 8000 -SHRA FEW005 SCT010 BKN030 22/22 Q1002
RJSI 160300Z 20008KT 6000 SHRA FEW005 BKN010 BKN020 22/22 Q1003
RJSI 160216Z 16003KT 130V210 6000 SHRA FEW003 BKN010 BKN020 22/22 Q1003 RMK 1ST003 5CU010 7CU020 A2963
RJSI 160200Z VRB02KT 4000 SHRA BR FEW003 BKN010 BKN020 22/22 Q1004
RJSI 160124Z VRB02KT 4000 SHRA BR FEW003 BKN010 BKN015 22/22 Q1004 RMK 1ST003 5CU010 7CU015 A2967
RJSI 160100Z 19003KT 160V220 9999 SHRA FEW003 SCT010 BKN020 22/22 Q1004
RJSI 160033Z 18006KT 150V220 9999 SHRA FEW003 SCT010 BKN020 22/22 Q1004 RMK 1ST003 4CU010 6CU020 A2966
RJSI 160000Z 15004KT 110V190 9999 -SHRA FEW003 SCT012 BKN025 22/21 Q1005
RJSI 152300Z VRB02KT 9999 -SHRA FEW003 SCT015 BKN025 22/21 Q1005
RJSI 152240Z VRB02KT 9999 -SHRA FEW003 SCT015 BKN025 22/21 Q1005 RMK 1ST003 4CU015 6CU025 A2969